Time;durP1;ratioP1;P1;durP2;ratioP2;P2;SDS_P1;SDS_P2;PMS_P1;PMS_P2;Temp;Humidity;BMP_temperature;BMP_pressure;BME280_temperature;BME280_humidity;BME280_pressure;Samples;Min_cycle;Max_cycle;Signal;HPM_P1;HPM_P2
2021/10/08 00:02:23;;;;;;;13.25;3.78;;;20.20;99.90;;;;;;5073355;28;20037;-70
2021/10/08 00:04:50;;;;;;;12.18;4.05;;;21.00;99.90;;;;;;5073422;28;20082;-70
2021/10/08 00:07:17;;;;;;;14.15;4.10;;;21.20;99.20;;;;;;5073759;28;20050;-69
2021/10/08 00:09:45;;;;;;;10.55;3.90;;;21.30;99.90;;;;;;5073987;28;20033;-71
2021/10/08 00:12:13;;;;;;;11.82;3.83;;;21.30;99.90;;;;;;5055358;28;20043;-70
2021/10/08 00:14:41;;;;;;;13.13;4.35;;;20.90;99.90;;;;;;5055552;28;20024;-70
2021/10/08 00:17:09;;;;;;;16.80;3.92;;;20.70;99.90;;;;;;5073358;28;20473;-70
2021/10/08 00:19:36;;;;;;;14.10;4.32;;;20.60;99.90;;;;;;5055214;28;20028;-70
2021/10/08 00:22:04;;;;;;;13.60;3.88;;;20.70;99.90;;;;;;5054755;28;20120;-70
2021/10/08 00:24:31;;;;;;;12.38;3.97;;;21.00;99.90;;;;;;5073264;28;20078;-68
2021/10/08 00:26:59;;;;;;;15.07;4.43;;;21.00;99.90;;;;;;5073139;28;20016;-70
2021/10/08 00:29:26;;;;;;;10.57;3.90;;;21.00;99.90;;;;;;5073052;28;20055;-70
2021/10/08 00:31:53;;;;;;;11.30;3.97;;;21.10;99.90;;;;;;5073027;28;20032;-70
2021/10/08 00:34:21;;;;;;;15.65;4.72;;;21.10;99.90;;;;;;5072673;28;20027;-68
2021/10/08 00:36:48;;;;;;;11.07;4.03;;;21.10;99.90;;;;;;5072764;28;20473;-70
2021/10/08 00:39:15;;;;;;;12.80;3.88;;;20.90;99.90;;;;;;5054816;28;20467;-70
2021/10/08 00:41:43;;;;;;;13.50;4.22;;;20.70;99.90;;;;;;5072725;28;20024;-70
2021/10/08 00:44:11;;;;;;;10.35;4.20;;;20.40;99.90;;;;;;5054713;28;20021;-71
2021/10/08 00:46:39;;;;;;;14.05;4.05;;;20.40;99.90;;;;;;5072620;28;20095;-70
2021/10/08 00:49:07;;;;;;;12.77;3.97;;;20.40;99.90;;;;;;5054599;28;20028;-71
2021/10/08 00:51:34;;;;;;;19.38;4.60;;;20.40;99.90;;;;;;5072569;28;20052;-70
2021/10/08 00:54:01;;;;;;;13.18;4.15;;;20.30;99.90;;;;;;5072773;28;20473;-70
2021/10/08 00:56:30;;;;;;;10.15;3.85;;;20.60;99.90;;;;;;5073003;28;20040;-70
2021/10/08 00:58:59;;;;;;;14.40;4.05;;;20.60;99.90;;;;;;5055078;28;20024;-70
2021/10/08 01:01:26;;;;;;;15.32;4.32;;;20.80;99.90;;;;;;5072717;28;20090;-70
2021/10/08 01:03:54;;;;;;;9.38;4.47;;;20.70;99.90;;;;;;5072626;28;20020;-69
2021/10/08 01:06:21;;;;;;;12.00;3.80;;;20.60;99.90;;;;;;5054481;28;20119;-70
2021/10/08 01:08:48;;;;;;;17.83;4.30;;;20.70;99.90;;;;;;5054609;28;20475;-70
2021/10/08 01:11:19;;;;;;;10.43;4.20;;;21.20;99.90;;;;;;5055959;28;20046;-71
2021/10/08 01:13:47;;;;;;;14.23;5.00;;;21.60;99.90;;;;;;5072573;28;20025;-69
2021/10/08 01:16:21;;;;;;;10.77;4.65;;;21.90;98.40;;;;;;5072297;28;20033;-70
2021/10/08 01:18:49;;;;;;;10.70;3.95;;;22.70;95.30;;;;;;5072464;28;20035;-69
2021/10/08 01:21:17;;;;;;;9.73;3.80;;;22.30;94.80;;;;;;5054273;28;20063;-69
2021/10/08 01:23:46;;;;;;;17.25;5.35;;;22.40;94.90;;;;;;5054465;28;20028;-69
2021/10/08 01:26:14;;;;;;;11.02;4.00;;;22.10;96.00;;;;;;5072263;28;20432;-69
2021/10/08 01:28:41;;;;;;;12.90;4.25;;;22.50;94.90;;;;;;5072433;28;20469;-69
2021/10/08 01:31:09;;;;;;;15.77;4.57;;;22.70;94.40;;;;;;5072327;28;20410;-69
2021/10/08 01:33:36;;;;;;;14.95;4.32;;;22.90;94.10;;;;;;5073146;28;20047;-69
2021/10/08 01:36:03;;;;;;;10.82;4.40;;;22.70;94.30;;;;;;5075810;28;20025;-70
2021/10/08 01:38:31;;;;;;;12.10;4.05;;;22.30;94.20;;;;;;5075816;28;20055;-70
2021/10/08 01:40:58;;;;;;;17.05;4.60;;;21.80;94.60;;;;;;5075771;28;20522;-71
2021/10/08 01:43:25;;;;;;;9.63;4.20;;;21.80;94.80;;;;;;5076027;28;20078;-71
2021/10/08 01:45:53;;;;;;;11.75;3.80;;;21.70;95.40;;;;;;5075769;28;20150;-71
2021/10/08 01:48:20;;;;;;;13.85;4.43;;;21.40;95.20;;;;;;5057753;28;20025;-70
2021/10/08 01:50:47;;;;;;;12.25;4.43;;;21.20;95.70;;;;;;5057641;28;20021;-70
2021/10/08 01:53:15;;;;;;;12.55;3.78;;;21.60;96.30;;;;;;5075584;28;20028;-69
2021/10/08 01:55:42;;;;;;;12.10;3.80;;;22.30;95.00;;;;;;5075740;28;20027;-69
2021/10/08 01:58:09;;;;;;;11.98;4.05;;;22.60;94.40;;;;;;5075531;28;20025;-69
2021/10/08 02:00:37;;;;;;;13.35;3.88;;;22.70;94.30;;;;;;5075316;28;20029;-68
2021/10/08 02:03:04;;;;;;;14.05;3.70;;;22.60;94.30;;;;;;5075204;28;20027;-69
2021/10/08 02:05:31;;;;;;;10.35;3.72;;;22.40;94.60;;;;;;5075427;28;20020;-70
2021/10/08 02:07:59;;;;;;;14.88;4.50;;;22.40;94.40;;;;;;5075364;28;20108;-70
2021/10/08 02:10:26;;;;;;;12.38;4.50;;;22.30;95.70;;;;;;5075385;28;20071;-70
2021/10/08 02:12:53;;;;;;;10.05;3.45;;;22.20;95.20;;;;;;5057241;28;20024;-70
2021/10/08 02:15:21;;;;;;;12.70;4.18;;;22.10;95.20;;;;;;5075262;28;20047;-70
2021/10/08 02:17:48;;;;;;;12.88;4.82;;;22.10;94.80;;;;;;5075121;28;20020;-70
2021/10/08 02:20:16;;;;;;;10.48;4.40;;;22.10;95.00;;;;;;5075060;28;20024;-69
2021/10/08 02:22:43;;;;;;;13.52;3.72;;;22.10;95.50;;;;;;5074950;28;20439;-71
2021/10/08 02:25:11;;;;;;;12.90;3.85;;;22.40;95.30;;;;;;5075016;28;20050;-70
2021/10/08 02:27:38;;;;;;;12.48;4.15;;;22.90;95.00;;;;;;5074923;28;20021;-71
2021/10/08 02:30:06;;;;;;;11.23;4.32;;;23.10;94.80;;;;;;5075192;28;20021;-69
2021/10/08 02:32:33;;;;;;;10.13;4.18;;;23.70;93.50;;;;;;5074802;28;20032;-70
2021/10/08 02:35:01;;;;;;;9.00;3.60;;;23.50;93.20;;;;;;5056791;28;20126;-70
2021/10/08 02:37:28;;;;;;;11.63;4.07;;;22.90;93.70;;;;;;5074877;28;20074;-70
2021/10/08 02:39:55;;;;;;;12.43;3.60;;;22.80;94.20;;;;;;5074634;28;20020;-69
2021/10/08 02:42:23;;;;;;;11.85;3.97;;;22.80;93.90;;;;;;5074796;28;20090;-69
2021/10/08 02:44:50;;;;;;;11.77;4.10;;;22.90;93.70;;;;;;5074526;28;20086;-70
2021/10/08 02:47:19;;;;;;;12.65;3.60;;;22.20;93.90;;;;;;5056613;28;20389;-70
2021/10/08 02:49:46;;;;;;;16.98;4.25;;;21.90;94.90;;;;;;5074504;28;20021;-71
2021/10/08 02:52:14;;;;;;;11.13;3.70;;;21.80;95.40;;;;;;5056448;28;20074;-69
2021/10/08 02:54:41;;;;;;;10.75;4.53;;;21.40;95.60;;;;;;5074265;28;20016;-69
2021/10/08 02:57:08;;;;;;;15.20;4.40;;;21.50;96.40;;;;;;5074312;28;20100;-70
2021/10/08 02:59:36;;;;;;;13.43;4.28;;;22.10;95.80;;;;;;5074309;28;20416;-70
2021/10/08 03:02:04;;;;;;;9.05;4.30;;;22.20;94.80;;;;;;5074002;28;20115;-70
2021/10/08 03:04:31;;;;;;;11.38;3.95;;;22.40;95.00;;;;;;5074213;28;20029;-71
2021/10/08 03:06:59;;;;;;;10.27;4.50;;;22.70;94.30;;;;;;5074187;28;20070;-71
2021/10/08 03:09:26;;;;;;;14.77;3.90;;;22.60;94.50;;;;;;5074530;28;20452;-71
2021/10/08 03:11:53;;;;;;;8.05;3.83;;;22.80;93.90;;;;;;5074063;28;20025;-70
2021/10/08 03:14:21;;;;;;;16.20;4.20;;;23.10;94.10;;;;;;5074491;28;20107;-72
2021/10/08 03:16:48;;;;;;;15.05;4.13;;;22.90;93.90;;;;;;5073935;28;20031;-71
2021/10/08 03:19:15;;;;;;;11.63;4.47;;;23.00;94.00;;;;;;5055929;28;20093;-72
2021/10/08 03:21:43;;;;;;;11.48;4.03;;;22.80;94.20;;;;;;5055722;28;20086;-71
2021/10/08 03:24:10;;;;;;;13.77;4.15;;;22.00;95.00;;;;;;5055760;28;20046;-72
2021/10/08 03:26:39;;;;;;;14.00;4.53;;;22.00;95.10;;;;;;5073706;28;20028;-71
2021/10/08 03:29:06;;;;;;;14.70;4.30;;;21.80;95.00;;;;;;5055726;28;20032;-71
2021/10/08 03:31:35;;;;;;;14.35;3.92;;;22.20;95.30;;;;;;5074039;28;20021;-71
2021/10/08 03:34:03;;;;;;;12.00;4.22;;;22.00;94.90;;;;;;5074049;28;20035;-71
2021/10/08 03:36:37;;;;;;;12.77;4.40;;;22.10;95.20;;;;;;5074011;28;20404;-71
2021/10/08 03:39:06;;;;;;;10.77;4.30;;;22.20;95.20;;;;;;5074003;28;20024;-71
2021/10/08 03:41:34;;;;;;;12.88;4.50;;;22.20;95.20;;;;;;5073830;28;20514;-71
2021/10/08 03:44:03;;;;;;;16.52;4.28;;;22.40;94.30;;;;;;5073886;28;20435;-71
2021/10/08 03:46:38;;;;;;;16.45;3.78;;;22.40;94.60;;;;;;5055717;28;20078;-70
2021/10/08 03:51:34;;;;;;;12.80;3.95;;;22.80;94.60;;;;;;5073703;28;20088;-71
2021/10/08 03:54:03;;;;;;;11.00;3.88;;;22.80;94.30;;;;;;5073605;28;20028;-70
2021/10/08 03:56:31;;;;;;;10.23;3.70;;;22.80;94.70;;;;;;5073193;28;20408;-71
2021/10/08 03:59:00;;;;;;;14.63;3.72;;;22.60;94.50;;;;;;5073943;28;20024;-71
2021/10/08 04:01:27;;;;;;;11.82;3.75;;;22.60;94.60;;;;;;5073309;28;20123;-70
2021/10/08 04:03:54;;;;;;;12.07;3.45;;;22.40;94.70;;;;;;5073367;28;20024;-70
2021/10/08 04:06:22;;;;;;;14.05;3.55;;;22.20;95.20;;;;;;5073474;28;20027;-70
2021/10/08 04:08:50;;;;;;;11.55;3.63;;;22.50;95.10;;;;;;5073476;28;20017;-70
2021/10/08 04:11:17;;;;;;;13.48;4.32;;;22.70;93.90;;;;;;5073619;28;20058;-70
2021/10/08 04:13:45;;;;;;;12.82;4.20;;;22.30;94.20;;;;;;5055624;28;20097;-69
2021/10/08 04:16:12;;;;;;;10.45;3.88;;;22.20;94.30;;;;;;5055514;28;20029;-70
2021/10/08 04:18:39;;;;;;;16.45;4.60;;;22.10;94.70;;;;;;5073538;28;20500;-70
2021/10/08 04:21:07;;;;;;;12.73;4.50;;;21.80;95.60;;;;;;5055516;28;20036;-70
2021/10/08 04:23:34;;;;;;;11.98;3.80;;;22.20;95.60;;;;;;5073464;28;20389;-69
2021/10/08 04:26:02;;;;;;;13.10;4.07;;;22.20;95.30;;;;;;5055804;28;20162;-69
2021/10/08 04:28:29;;;;;;;13.45;4.00;;;22.60;95.50;;;;;;5073294;28;20469;-69
2021/10/08 04:30:57;;;;;;;15.02;4.20;;;22.60;94.70;;;;;;5073559;28;20365;-70
2021/10/08 04:33:26;;;;;;;11.60;4.10;;;22.70;94.90;;;;;;5055395;28;20070;-71
2021/10/08 04:35:59;;;;;;;13.13;3.72;;;22.90;94.40;;;;;;5073229;28;20099;-71
2021/10/08 04:38:29;;;;;;;13.07;4.03;;;22.70;94.50;;;;;;5073165;28;20024;-70
2021/10/08 04:40:57;;;;;;;11.45;4.47;;;22.40;94.80;;;;;;5055233;28;20016;-70
2021/10/08 04:43:24;;;;;;;12.93;4.13;;;22.60;94.50;;;;;;5073181;28;20028;-71
2021/10/08 04:45:51;;;;;;;11.73;3.72;;;22.40;94.70;;;;;;5073112;28;20020;-70
2021/10/08 04:48:19;;;;;;;12.55;3.85;;;22.40;94.70;;;;;;5073255;28;20021;-70
2021/10/08 04:50:46;;;;;;;14.32;4.68;;;22.00;94.70;;;;;;5073271;28;20055;-72
2021/10/08 04:53:15;;;;;;;13.30;3.85;;;22.10;95.50;;;;;;5073257;28;20029;-70
2021/10/08 04:55:43;;;;;;;14.23;3.67;;;22.20;95.40;;;;;;5073082;28;20021;-69
2021/10/08 04:58:11;;;;;;;12.55;3.38;;;22.00;95.70;;;;;;5055326;28;20099;-69
2021/10/08 05:00:38;;;;;;;15.10;3.95;;;22.30;95.70;;;;;;5054731;28;20027;-69
2021/10/08 05:03:13;;;;;;;12.95;3.75;;;22.40;95.50;;;;;;5072860;28;20033;-70
2021/10/08 05:05:47;;;;;;;14.90;3.70;;;22.20;95.20;;;;;;5054745;28;20033;-70
2021/10/08 05:08:15;;;;;;;13.73;4.30;;;21.50;96.00;;;;;;5075114;28;20395;-69
2021/10/08 05:10:43;;;;;;;15.77;4.30;;;21.50;96.20;;;;;;5076878;28;20028;-69
2021/10/08 05:13:12;;;;;;;15.18;4.45;;;21.40;95.90;;;;;;5076860;28;20120;-70
2021/10/08 05:15:39;;;;;;;14.40;4.82;;;21.40;96.00;;;;;;5076853;28;20504;-70
2021/10/08 05:18:07;;;;;;;17.35;4.05;;;21.60;96.20;;;;;;5058492;28;20036;-69
2021/10/08 05:20:35;;;;;;;13.05;3.88;;;21.90;96.40;;;;;;5076854;28;20378;-69
2021/10/08 05:23:03;;;;;;;12.68;4.47;;;21.90;96.30;;;;;;5076433;28;20085;-69
2021/10/08 05:25:30;;;;;;;12.60;4.22;;;21.60;96.20;;;;;;5076655;28;20028;-70
2021/10/08 05:27:58;;;;;;;12.38;3.90;;;21.50;96.10;;;;;;5058778;28;20025;-70
2021/10/08 05:30:25;;;;;;;12.43;4.07;;;21.50;96.10;;;;;;5076548;28;20469;-70
2021/10/08 05:32:52;;;;;;;13.50;4.15;;;21.70;96.00;;;;;;5058560;28;20025;-69
2021/10/08 05:35:20;;;;;;;12.15;3.83;;;21.50;96.30;;;;;;5058243;28;20031;-69
2021/10/08 05:37:47;;;;;;;13.05;3.60;;;21.30;96.80;;;;;;5076800;28;20029;-69
2021/10/08 05:40:15;;;;;;;14.27;3.88;;;21.50;97.00;;;;;;5076578;28;20369;-70
2021/10/08 05:42:42;;;;;;;11.88;3.92;;;21.20;96.90;;;;;;5076284;28;20400;-70
2021/10/08 05:45:10;;;;;;;14.02;3.88;;;21.20;97.20;;;;;;5076381;28;20024;-69
2021/10/08 05:47:37;;;;;;;13.32;3.92;;;21.30;97.30;;;;;;5058153;28;20028;-70
2021/10/08 05:50:05;;;;;;;11.07;4.07;;;21.30;97.40;;;;;;5075992;28;20431;-71
2021/10/08 05:52:33;;;;;;;11.07;3.83;;;21.20;97.10;;;;;;5076119;28;20016;-69
2021/10/08 05:55:00;;;;;;;14.00;3.70;;;21.10;97.40;;;;;;5076289;28;20036;-70
2021/10/08 05:57:28;;;;;;;13.07;3.60;;;21.30;97.20;;;;;;5076098;28;20028;-70
2021/10/08 05:59:55;;;;;;;18.38;3.83;;;21.20;97.50;;;;;;5075936;28;20028;-70
2021/10/08 06:02:22;;;;;;;10.90;3.72;;;21.30;97.50;;;;;;5075636;28;20043;-70
2021/10/08 06:04:49;;;;;;;13.07;3.92;;;21.30;97.80;;;;;;5075864;28;20017;-69
2021/10/08 06:07:17;;;;;;;13.68;4.20;;;21.40;97.70;;;;;;5076061;28;20103;-69
2021/10/08 06:09:46;;;;;;;13.40;3.72;;;21.20;97.60;;;;;;5057419;28;20035;-70
2021/10/08 06:12:14;;;;;;;13.75;4.28;;;21.20;97.60;;;;;;5076020;28;20355;-70
2021/10/08 06:14:42;;;;;;;14.80;4.90;;;21.20;97.90;;;;;;5075686;28;20039;-70
2021/10/08 06:17:09;;;;;;;13.95;4.05;;;21.10;98.00;;;;;;5075718;28;20024;-71
2021/10/08 06:19:37;;;;;;;16.98;4.45;;;21.10;98.10;;;;;;5074973;28;20028;-70
2021/10/08 06:22:04;;;;;;;14.77;4.30;;;21.20;98.10;;;;;;5075370;28;20025;-70
2021/10/08 06:24:32;;;;;;;12.07;3.78;;;21.20;98.10;;;;;;5075636;28;20454;-70
2021/10/08 06:26:59;;;;;;;15.43;5.00;;;21.20;97.90;;;;;;5075524;28;20039;-70
2021/10/08 06:29:26;;;;;;;16.55;4.70;;;20.90;98.70;;;;;;5075260;28;20048;-70
2021/10/08 06:31:54;;;;;;;13.15;3.97;;;20.60;98.70;;;;;;5075623;28;20572;-70
2021/10/08 06:34:21;;;;;;;14.20;4.10;;;20.30;99.50;;;;;;5075314;28;20078;-71
2021/10/08 06:36:49;;;;;;;13.63;4.28;;;20.10;99.40;;;;;;5075251;28;20416;-70
2021/10/08 06:39:16;;;;;;;15.40;4.43;;;19.80;99.90;;;;;;5075122;28;20060;-70
2021/10/08 06:41:44;;;;;;;13.23;4.20;;;19.70;99.90;;;;;;5074905;28;20027;-71
2021/10/08 06:44:11;;;;;;;14.55;4.63;;;19.80;99.90;;;;;;5075174;28;20016;-70
2021/10/08 06:46:38;;;;;;;15.75;4.95;;;19.70;99.90;;;;;;5075252;28;20090;-71
2021/10/08 06:49:06;;;;;;;14.73;4.90;;;19.80;99.90;;;;;;5075174;28;20024;-69
2021/10/08 06:51:33;;;;;;;16.90;4.82;;;20.10;99.90;;;;;;5074993;28;20029;-70
2021/10/08 06:54:00;;;;;;;11.93;5.05;;;19.90;99.90;;;;;;5075163;28;20028;-69
2021/10/08 06:56:29;;;;;;;13.18;4.53;;;19.90;99.90;;;;;;5074978;28;20028;-71
2021/10/08 06:58:59;;;;;;;16.35;4.85;;;20.30;99.90;;;;;;5074956;28;20041;-71
2021/10/08 07:01:27;;;;;;;15.27;4.32;;;20.30;99.90;;;;;;5074630;28;20359;-70
2021/10/08 07:03:54;;;;;;;15.20;4.75;;;20.00;99.90;;;;;;5074755;28;20032;-71
2021/10/08 07:06:21;;;;;;;15.57;4.47;;;19.70;99.90;;;;;;5074615;28;20029;-71
2021/10/08 07:08:49;;;;;;;17.05;4.68;;;19.50;99.90;;;;;;5074752;28;20104;-71
2021/10/08 07:11:16;;;;;;;12.55;4.30;;;19.20;99.90;;;;;;5056273;28;20389;-71
2021/10/08 07:13:43;;;;;;;13.82;4.80;;;19.10;99.90;;;;;;5074792;28;20020;-70
2021/10/08 07:16:11;;;;;;;12.43;4.30;;;19.00;99.90;;;;;;5074557;28;20020;-71
2021/10/08 07:18:38;;;;;;;12.30;4.80;;;18.80;99.90;;;;;;5074533;28;20104;-71
2021/10/08 07:21:06;;;;;;;13.48;4.80;;;18.80;99.90;;;;;;5074670;28;20043;-71
2021/10/08 07:23:34;;;;;;;18.48;4.57;;;18.60;99.90;;;;;;5074266;28;20428;-71
2021/10/08 07:26:02;;;;;;;10.88;4.18;;;18.40;99.90;;;;;;5074414;28;20059;-71
2021/10/08 07:28:29;;;;;;;12.82;4.30;;;18.40;99.90;;;;;;5074172;28;20013;-71
2021/10/08 07:30:56;;;;;;;15.02;4.97;;;18.30;99.90;;;;;;5073323;28;20025;-71
2021/10/08 07:33:24;;;;;;;14.77;5.10;;;18.30;99.90;;;;;;5073878;28;20024;-71
2021/10/08 07:35:51;;;;;;;17.15;5.00;;;18.30;99.90;;;;;;5074292;28;20059;-70
2021/10/08 07:38:18;;;;;;;10.60;4.70;;;18.10;99.90;;;;;;5073839;28;20023;-71
2021/10/08 07:40:46;;;;;;;14.60;5.53;;;18.10;99.90;;;;;;5074088;28;20016;-70
2021/10/08 07:43:13;;;;;;;17.75;6.00;;;18.00;99.90;;;;;;5073704;28;20078;-71
2021/10/08 07:45:40;;;;;;;15.27;5.20;;;18.00;99.90;;;;;;5073459;28;20040;-70
2021/10/08 07:48:08;;;;;;;14.10;5.10;;;18.00;99.90;;;;;;5073774;28;20377;-71
2021/10/08 07:50:36;;;;;;;16.90;7.03;;;17.90;99.90;;;;;;5073768;28;20017;-71
2021/10/08 07:53:03;;;;;;;16.10;5.28;;;17.90;99.90;;;;;;5055808;28;20163;-72
2021/10/08 07:55:30;;;;;;;12.95;5.07;;;17.90;99.90;;;;;;5073688;28;20028;-71
2021/10/08 07:57:58;;;;;;;16.80;6.63;;;17.80;99.90;;;;;;5073879;28;20024;-70
2021/10/08 08:00:25;;;;;;;14.95;5.47;;;17.70;99.90;;;;;;5074022;28;20032;-71
2021/10/08 08:02:52;;;;;;;18.55;6.13;;;17.70;99.90;;;;;;5073300;28;20047;-70
2021/10/08 08:05:20;;;;;;;21.98;6.47;;;17.60;99.90;;;;;;5055676;28;20020;-70
2021/10/08 08:07:48;;;;;;;15.93;7.32;;;17.60;99.90;;;;;;5073539;28;20146;-70
2021/10/08 08:10:15;;;;;;;16.30;6.53;;;17.50;99.90;;;;;;5073673;28;20027;-71
2021/10/08 08:12:43;;;;;;;16.55;6.53;;;17.50;99.90;;;;;;5073546;28;20477;-70
2021/10/08 08:15:11;;;;;;;19.38;6.88;;;17.50;99.90;;;;;;5073490;28;20510;-72
2021/10/08 08:17:39;;;;;;;22.95;7.75;;;17.50;99.90;;;;;;5073459;28;20040;-70
2021/10/08 08:20:07;;;;;;;18.15;7.93;;;17.40;99.90;;;;;;5073621;28;20362;-70
2021/10/08 08:22:35;;;;;;;16.88;6.57;;;17.40;99.90;;;;;;5055351;28;20024;-70
2021/10/08 08:25:03;;;;;;;15.27;7.13;;;17.40;99.90;;;;;;5055582;28;20111;-70
2021/10/08 08:27:30;;;;;;;21.70;7.43;;;17.30;99.90;;;;;;5073520;28;20025;-70
2021/10/08 08:29:58;;;;;;;24.95;7.05;;;17.30;99.90;;;;;;5073339;28;20047;-70
2021/10/08 08:32:27;;;;;;;15.60;6.07;;;17.30;99.90;;;;;;5055488;28;20036;-71
2021/10/08 08:34:54;;;;;;;14.65;5.88;;;17.20;99.90;;;;;;5073505;28;20115;-70
2021/10/08 08:37:22;;;;;;;18.52;6.32;;;17.20;99.90;;;;;;5073358;28;20474;-70
2021/10/08 08:39:49;;;;;;;16.15;5.88;;;17.20;99.90;;;;;;5073327;28;20051;-70
2021/10/08 08:42:21;;;;;;;14.60;6.05;;;17.20;99.90;;;;;;5073658;28;20032;-70
2021/10/08 08:44:49;;;;;;;18.50;7.43;;;17.30;99.90;;;;;;5059437;28;20381;-69
2021/10/08 08:47:18;;;;;;;15.25;6.22;;;17.30;99.90;;;;;;5077318;28;20025;-70
2021/10/08 08:49:46;;;;;;;19.70;6.60;;;17.30;99.90;;;;;;5077423;28;20549;-71
2021/10/08 08:52:15;;;;;;;20.08;7.30;;;17.20;99.90;;;;;;5077459;28;20074;-70
2021/10/08 08:54:44;;;;;;;19.48;7.75;;;17.20;99.90;;;;;;5076888;28;20115;-71
2021/10/08 08:57:19;;;;;;;18.35;7.80;;;17.20;99.90;;;;;;5077134;28;20445;-72
2021/10/08 09:00:01;;;;;;;14.73;7.30;;;17.20;99.90;;;;;;5077020;28;20024;-72
2021/10/08 09:02:30;;;;;;;16.33;7.10;;;17.30;99.90;;;;;;5076860;28;20070;-72
2021/10/08 09:04:58;;;;;;;18.60;7.30;;;17.20;99.90;;;;;;5076934;28;20052;-71
2021/10/08 09:07:32;;;;;;;16.35;7.95;;;17.20;99.90;;;;;;5058884;28;20106;-69
2021/10/08 09:10:20;;;;;;;17.83;7.95;;;17.20;99.90;;;;;;5058652;28;20025;-70
2021/10/08 09:12:49;;;;;;;18.30;7.47;;;17.20;99.90;;;;;;5058432;28;20055;-70
2021/10/08 09:15:18;;;;;;;14.85;6.95;;;17.10;99.90;;;;;;5076861;28;20104;-71
2021/10/08 09:17:45;;;;;;;13.93;7.43;;;17.10;99.90;;;;;;5076488;28;20512;-70
2021/10/08 09:20:18;;;;;;;12.80;6.90;;;17.10;99.90;;;;;;5076778;28;20016;-71
2021/10/08 09:22:49;;;;;;;16.55;6.70;;;17.00;99.90;;;;;;5076608;28;20025;-71
2021/10/08 09:25:16;;;;;;;16.25;7.80;;;16.90;99.90;;;;;;5076811;28;20017;-72
2021/10/08 09:27:55;;;;;;;15.45;7.28;;;17.00;99.90;;;;;;5076354;28;20385;-72
2021/10/08 09:30:27;;;;;;;17.17;7.75;;;17.00;99.90;;;;;;5076597;28;20021;-72
2021/10/08 09:32:56;;;;;;;16.75;7.13;;;17.00;99.90;;;;;;5076605;28;20034;-72
2021/10/08 09:35:27;;;;;;;23.05;9.00;;;17.00;99.90;;;;;;5076354;28;20373;-75
2021/10/08 09:37:56;;;;;;;21.52;8.15;;;17.00;99.90;;;;;;5076501;28;20096;-72
2021/10/08 09:40:46;;;;;;;14.73;8.05;;;17.00;99.90;;;;;;5076363;28;20028;-72
2021/10/08 09:43:25;;;;;;;14.73;7.43;;;16.90;99.90;;;;;;5076065;28;20473;-72
2021/10/08 09:46:05;;;;;;;19.48;8.10;;;16.90;99.90;;;;;;5076187;28;20076;-71
2021/10/08 09:48:32;;;;;;;14.27;7.93;;;16.90;99.90;;;;;;5076299;28;20020;-71
2021/10/08 09:51:04;;;;;;;12.00;6.95;;;16.90;99.90;;;;;;5058269;28;20021;-72
2021/10/08 09:53:37;;;;;;;18.30;8.57;;;16.90;99.90;;;;;;5057790;28;20385;-71
2021/10/08 09:56:32;;;;;;;17.38;8.07;;;16.90;99.90;;;;;;5057691;28;20040;-72
2021/10/08 09:59:00;;;;;;;15.18;8.27;;;16.90;99.90;;;;;;5076150;28;20412;-73
2021/10/08 10:01:29;;;;;;;12.90;7.38;;;16.90;99.90;;;;;;5075569;28;20036;-72
2021/10/08 10:03:57;;;;;;;15.48;7.45;;;16.90;99.90;;;;;;5075688;28;20017;-71
2021/10/08 10:06:24;;;;;;;19.42;8.38;;;16.80;99.90;;;;;;5075928;28;20059;-72
2021/10/08 10:08:52;;;;;;;12.73;7.95;;;16.80;99.90;;;;;;5075731;28;20044;-72
2021/10/08 10:11:23;;;;;;;12.32;7.55;;;16.90;99.90;;;;;;5075967;28;20017;-72
2021/10/08 10:13:55;;;;;;;17.90;7.63;;;16.90;99.90;;;;;;5057700;28;20027;-72
2021/10/08 10:16:24;;;;;;;14.13;7.10;;;16.90;99.90;;;;;;5057589;28;20024;-72
2021/10/08 10:18:57;;;;;;;15.57;8.15;;;16.80;99.90;;;;;;5075706;28;20485;-72
2021/10/08 10:21:30;;;;;;;18.90;7.90;;;16.90;99.90;;;;;;5075702;28;20359;-72
2021/10/08 10:24:00;;;;;;;17.55;7.68;;;16.90;99.90;;;;;;5075473;28;20017;-72
2021/10/08 10:26:33;;;;;;;15.00;8.30;;;16.90;99.90;;;;;;5075387;28;20469;-72
2021/10/08 10:29:02;;;;;;;11.63;7.45;;;16.90;99.90;;;;;;5075824;28;20039;-72
2021/10/08 10:31:34;;;;;;;17.65;8.57;;;16.90;99.90;;;;;;5057390;28;20029;-73
2021/10/08 10:34:02;;;;;;;16.10;8.27;;;16.80;99.90;;;;;;5075278;28;20030;-72
2021/10/08 10:36:32;;;;;;;16.08;8.43;;;16.80;99.90;;;;;;5057409;28;20027;-73
2021/10/08 10:39:20;;;;;;;18.67;7.82;;;16.90;99.90;;;;;;5075283;28;20020;-72
2021/10/08 10:42:16;;;;;;;18.02;9.10;;;16.90;99.90;;;;;;5075215;28;20357;-72
2021/10/08 10:45:12;;;;;;;18.65;8.15;;;16.90;99.90;;;;;;5062139;28;20039;-72
2021/10/08 10:47:41;;;;;;;18.13;7.70;;;16.90;99.90;;;;;;5075089;28;20044;-71
2021/10/08 10:50:47;;;;;;;18.98;9.15;;;16.80;99.90;;;;;;5075123;28;20021;-72
2021/10/08 10:53:07;;;;;;;16.58;9.82;;;16.70;99.90;;;;;;5073806;28;20055;-72
2021/10/08 10:55:35;;;;;;;21.70;10.10;;;16.80;99.90;;;;;;5057258;28;20082;-72
2021/10/08 10:58:09;;;;;;;22.05;10.55;;;16.80;99.90;;;;;;5074950;28;20029;-72
2021/10/08 11:00:46;;;;;;;22.73;10.73;;;16.80;99.90;;;;;;5075120;28;20025;-72
2021/10/08 11:03:22;;;;;;;18.90;9.65;;;16.80;99.90;;;;;;5074617;28;20446;-72
2021/10/08 11:06:05;;;;;;;12.18;9.77;;;16.80;99.90;;;;;;5074557;28;20470;-72
2021/10/08 11:08:32;;;;;;;16.45;9.82;;;16.70;99.90;;;;;;5074554;28;20385;-71
2021/10/08 11:11:16;;;;;;;16.80;9.95;;;16.70;99.90;;;;;;5056822;28;20085;-72
2021/10/08 11:13:44;;;;;;;13.90;9.70;;;16.70;99.90;;;;;;5056635;28;20063;-72
2021/10/08 11:16:15;;;;;;;17.00;9.40;;;16.70;99.90;;;;;;5056552;28;20059;-72
2021/10/08 11:18:50;;;;;;;17.92;9.57;;;16.70;99.90;;;;;;5074689;28;20416;-72
2021/10/08 11:21:30;;;;;;;17.20;10.10;;;16.70;99.90;;;;;;5074235;28;20021;-72
2021/10/08 11:24:18;;;;;;;16.73;9.50;;;16.70;99.90;;;;;;5074376;28;20503;-72
2021/10/08 11:26:57;;;;;;;14.60;9.77;;;16.60;99.90;;;;;;5074389;28;20527;-72
2021/10/08 11:29:31;;;;;;;21.10;10.85;;;16.60;99.90;;;;;;5056129;28;20115;-72
2021/10/08 11:32:01;;;;;;;17.75;9.85;;;16.60;99.90;;;;;;5074189;28;20032;-71
2021/10/08 11:34:28;;;;;;;24.52;10.60;;;16.70;99.90;;;;;;5074030;28;20098;-72
2021/10/08 11:36:57;;;;;;;21.90;10.10;;;16.70;99.90;;;;;;5056407;28;20086;-72
2021/10/08 11:39:25;;;;;;;25.05;11.15;;;16.70;99.90;;;;;;5074144;28;20056;-72
2021/10/08 11:42:19;;;;;;;18.95;10.00;;;16.60;99.90;;;;;;5073941;28;20450;-72
2021/10/08 11:45:09;;;;;;;15.70;9.27;;;16.60;99.90;;;;;;5073820;28;20086;-72
2021/10/08 11:47:44;;;;;;;16.13;10.57;;;16.60;99.90;;;;;;5073900;28;20062;-71
2021/10/08 11:52:59;;;;;;;21.00;10.02;;;16.70;99.90;;;;;;5074105;28;20036;-72
2021/10/08 11:55:30;;;;;;;19.10;10.25;;;16.70;99.90;;;;;;5055912;28;20032;-72
2021/10/08 11:58:03;;;;;;;19.42;10.70;;;16.60;99.90;;;;;;5055579;28;20028;-71
2021/10/08 12:00:50;;;;;;;21.92;10.55;;;16.60;99.90;;;;;;5074103;28;20025;-72
2021/10/08 12:03:19;;;;;;;19.80;10.60;;;16.60;99.90;;;;;;5055715;28;20041;-72
2021/10/08 12:05:51;;;;;;;18.45;10.43;;;16.60;99.90;;;;;;5055786;28;20020;-72
2021/10/08 12:08:24;;;;;;;21.40;10.30;;;16.60;99.90;;;;;;5055534;28;20112;-72
2021/10/08 12:11:07;;;;;;;21.63;10.75;;;16.60;99.90;;;;;;5073989;28;20412;-72
2021/10/08 12:13:43;;;;;;;17.35;10.48;;;16.60;99.90;;;;;;5073696;28;20485;-72
2021/10/08 12:16:13;;;;;;;17.90;10.77;;;16.50;99.90;;;;;;5073485;28;20024;-72
2021/10/08 12:18:53;;;;;;;13.90;11.07;;;16.50;99.90;;;;;;5072899;28;20020;-72
2021/10/08 12:21:23;;;;;;;17.27;10.88;;;16.50;99.90;;;;;;5073552;28;20450;-72
2021/10/08 12:23:59;;;;;;;15.50;10.30;;;16.50;99.90;;;;;;5055470;28;20029;-72
2021/10/08 12:26:27;;;;;;;19.40;10.52;;;16.40;99.90;;;;;;5073412;28;20020;-72
2021/10/08 12:28:56;;;;;;;25.58;11.32;;;16.40;99.90;;;;;;5073414;28;20081;-72
2021/10/08 12:31:43;;;;;;;19.38;11.10;;;16.40;99.90;;;;;;5073405;28;20028;-71
2021/10/08 12:34:10;;;;;;;21.75;11.07;;;16.40;99.90;;;;;;5073338;28;20358;-71
2021/10/08 12:36:38;;;;;;;24.15;10.48;;;16.40;99.90;;;;;;5055304;28;20028;-71
2021/10/08 12:39:18;;;;;;;21.85;10.10;;;16.40;99.90;;;;;;5073235;28;20021;-71
2021/10/08 12:41:51;;;;;;;20.57;10.53;;;16.30;99.90;;;;;;5073318;28;20033;-71
2021/10/08 12:44:24;;;;;;;15.65;9.85;;;16.30;99.90;;;;;;5055493;28;20048;-71
2021/10/08 12:47:12;;;;;;;21.27;9.65;;;16.30;99.90;;;;;;5055123;28;20029;-71
2021/10/08 12:49:50;;;;;;;19.55;9.98;;;16.20;99.90;;;;;;5073347;28;20435;-71
2021/10/08 12:52:31;;;;;;;18.42;10.35;;;16.20;99.90;;;;;;5055202;28;20025;-72
2021/10/08 12:55:17;;;;;;;26.75;9.88;;;16.20;99.90;;;;;;5073452;28;20032;-72